Time;durP1;ratioP1;P1;durP2;ratioP2;P2;SDS_P1;SDS_P2;PMS_P1;PMS_P2;Temp;Humidity;BMP_temperature;BMP_pressure;BME280_temperature;BME280_humidity;BME280_pressure;Samples;Min_cycle;Max_cycle;Signal;HPM_P1;HPM_P2
2021/11/08 00:01:30;;;;;;;15.55;9.68;;;;;;;3.55;nan;100967.13;5001847;28;20041;-79
2021/11/08 00:03:55;;;;;;;15.68;9.43;;;;;;;3.53;nan;100969.88;5000900;28;20034;-79
2021/11/08 00:06:21;;;;;;;13.25;8.32;;;;;;;3.42;nan;100967.06;5013962;28;20031;-79
2021/11/08 00:08:46;;;;;;;13.68;9.25;;;;;;;3.34;nan;100979.78;4995362;28;20034;-79
2021/11/08 00:11:12;;;;;;;16.13;8.98;;;;;;;3.38;nan;100991.72;4994733;28;20034;-79
2021/11/08 00:13:38;;;;;;;13.10;8.07;;;;;;;3.41;nan;100983.72;5002040;28;20038;-79
2021/11/08 00:16:19;;;;;;;11.73;8.32;;;;;;;3.47;nan;100983.31;5011756;28;20620;-79
2021/11/08 00:21:20;;;;;;;13.48;8.68;;;;;;;3.52;nan;100983.84;5017008;28;20060;-79
2021/11/08 00:23:46;;;;;;;14.65;8.27;;;;;;;3.54;nan;100986.38;5013560;28;20030;-79
2021/11/08 00:26:11;;;;;;;11.50;7.72;;;;;;;3.53;nan;100989.97;5006895;28;20029;-79
2021/11/08 00:28:37;;;;;;;11.68;8.10;;;;;;;3.56;nan;100995.81;5000894;28;20070;-79
2021/11/08 00:31:03;;;;;;;11.15;7.38;;;;;;;3.65;nan;100988.31;5009370;28;20034;-79
2021/11/08 00:33:28;;;;;;;14.20;8.50;;;;;;;3.61;nan;100995.53;5018888;28;20109;-79
2021/11/08 00:35:57;;;;;;;10.85;7.28;;;;;;;3.63;nan;100993.66;5009813;28;20100;-79
2021/11/08 00:38:25;;;;;;;11.65;8.15;;;;;;;3.59;nan;100997.41;5013715;28;20595;-79
2021/11/08 00:40:52;;;;;;;11.38;7.28;;;;;;;3.53;nan;100998.63;5012905;28;20292;-78
2021/11/08 00:43:19;;;;;;;18.98;9.75;;;;;;;3.52;nan;100993.50;5008738;28;20061;-79
2021/11/08 00:45:45;;;;;;;12.82;9.30;;;;;;;3.45;nan;101003.47;5007603;28;20031;-79
2021/11/08 00:48:12;;;;;;;16.17;9.55;;;;;;;3.43;nan;100999.28;5006335;28;20043;-79
2021/11/08 00:50:40;;;;;;;19.20;10.35;;;;;;;3.46;nan;101005.19;5007990;28;20094;-79
2021/11/08 00:53:06;;;;;;;15.05;10.05;;;;;;;3.42;nan;100995.81;5006175;28;20046;-79
2021/11/08 00:55:32;;;;;;;15.68;9.77;;;;;;;3.36;nan;100994.44;5006925;28;20023;-79
2021/11/08 00:57:59;;;;;;;13.82;9.15;;;;;;;3.31;nan;100993.03;5008839;28;20478;-79
2021/11/08 01:00:27;;;;;;;11.52;8.70;;;;;;;3.28;nan;100996.66;5015182;28;20036;-79
2021/11/08 01:02:53;;;;;;;16.58;9.80;;;;;;;3.34;nan;101000.69;5022391;28;20098;-79
2021/11/08 01:05:19;;;;;;;14.38;9.38;;;;;;;3.34;nan;101000.69;5030683;28;20058;-79
2021/11/08 01:07:45;;;;;;;15.93;9.20;;;;;;;3.29;nan;100994.88;5012805;28;20034;-79
2021/11/08 01:10:15;;;;;;;11.18;7.38;;;;;;;3.25;nan;101001.25;5003876;28;20516;-79
2021/11/08 01:12:41;;;;;;;11.00;7.85;;;;;;;3.17;nan;100999.09;5010571;28;20053;-79
2021/11/08 01:15:08;;;;;;;12.20;8.23;;;;;;;3.17;nan;100999.09;5009265;28;20045;-79
2021/11/08 01:17:34;;;;;;;10.32;7.10;;;;;;;3.15;nan;101004.41;5003592;28;20038;-79
2021/11/08 01:20:00;;;;;;;12.23;7.72;;;;;;;3.12;nan;101006.34;5017391;28;20030;-79
2021/11/08 01:22:25;;;;;;;13.02;8.00;;;;;;;3.12;nan;101012.44;5003909;28;20086;-79
2021/11/08 01:24:56;;;;;;;11.75;7.95;;;;;;;3.14;nan;101005.34;5001891;28;20052;-79
2021/11/08 01:27:34;;;;;;;12.32;7.93;;;;;;;3.23;nan;101003.94;5004871;28;20034;-79
2021/11/08 01:30:01;;;;;;;12.57;7.72;;;;;;;3.19;nan;101000.69;5011868;28;20034;-79
2021/11/08 01:32:27;;;;;;;10.77;6.80;;;;;;;3.09;nan;101006.56;5008993;28;20035;-79
2021/11/08 01:34:52;;;;;;;12.55;8.00;;;;;;;3.05;nan;101007.66;5019116;28;20034;-79
2021/11/08 01:37:20;;;;;;;12.05;7.22;;;;;;;3.03;nan;101013.00;5014746;28;20065;-79
2021/11/08 01:39:46;;;;;;;11.93;7.03;;;;;;;3.02;nan;101013.06;5017807;28;20036;-79
2021/11/08 01:42:13;;;;;;;10.98;7.30;;;;;;;3.03;nan;101010.38;5007529;28;20034;-79
2021/11/08 01:44:38;;;;;;;11.07;7.50;;;;;;;3.00;nan;101013.16;5013646;28;20409;-79
2021/11/08 01:47:05;;;;;;;10.43;7.03;;;;;;;3.04;nan;101019.88;5002434;28;20038;-79
2021/11/08 01:49:32;;;;;;;10.80;7.05;;;;;;;2.99;nan;101011.50;5007728;28;20046;-79
2021/11/08 01:51:59;;;;;;;12.90;7.45;;;;;;;2.92;nan;101015.41;4998022;28;20043;-79
2021/11/08 01:54:25;;;;;;;17.67;8.98;;;;;;;3.03;nan;101020.84;5014770;28;20453;-79
2021/11/08 01:56:52;;;;;;;14.00;8.52;;;;;;;3.01;nan;101016.63;5014193;28;20113;-79
2021/11/08 01:59:19;;;;;;;11.80;7.75;;;;;;;2.94;nan;101011.75;5012177;28;20123;-79
2021/11/08 02:01:45;;;;;;;12.43;7.65;;;;;;;2.93;nan;101017.06;5015155;28;20561;-79
2021/11/08 02:04:10;;;;;;;11.52;7.90;;;;;;;2.88;nan;101019.13;5018936;28;20099;-79
2021/11/08 02:06:36;;;;;;;12.60;7.97;;;;;;;2.88;nan;101021.72;5013997;28;20050;-79
2021/11/08 02:09:03;;;;;;;14.05;8.57;;;;;;;2.94;nan;101022.22;5005602;28;20030;-79
2021/11/08 02:11:31;;;;;;;14.25;9.13;;;;;;;2.88;nan;101021.72;5009379;28;20517;-78
2021/11/08 02:13:57;;;;;;;14.43;8.52;;;;;;;2.85;nan;101027.13;5007850;28;20141;-78
2021/11/08 02:16:22;;;;;;;12.90;8.68;;;;;;;2.92;nan;101026.69;5005102;28;20066;-79
2021/11/08 02:18:47;;;;;;;16.42;8.80;;;;;;;2.96;nan;101027.34;5005445;28;20064;-79
2021/11/08 02:21:13;;;;;;;10.02;6.88;;;;;;;2.95;nan;101030.88;5010239;28;21034;-79
2021/11/08 02:23:40;;;;;;;10.80;7.10;;;;;;;2.96;nan;101033.41;4994766;28;20034;-79
2021/11/08 02:26:11;;;;;;;12.90;7.75;;;;;;;3.07;nan;101043.22;5007804;28;20042;-79
2021/11/08 02:28:37;;;;;;;9.70;7.20;;;;;;;3.05;nan;101034.66;4999318;28;20034;-78
2021/11/08 02:31:03;;;;;;;14.98;8.70;;;;;;;3.18;nan;101035.59;4995361;28;20046;-79
2021/11/08 02:33:28;;;;;;;16.13;9.38;;;;;;;3.20;nan;101035.50;5004089;28;20187;-78
2021/11/08 02:35:55;;;;;;;12.68;8.18;;;;;;;3.19;nan;101033.81;5001369;28;20040;-79
2021/11/08 02:38:31;;;;;;;11.07;7.53;;;;;;;3.22;nan;101036.25;5010651;28;20038;-79
2021/11/08 02:40:59;;;;;;;10.63;7.20;;;;;;;3.24;nan;101036.97;5009772;28;20193;-79
2021/11/08 02:43:26;;;;;;;19.65;8.95;;;;;;;3.37;nan;101043.16;5001342;28;20037;-78
2021/11/08 02:48:28;;;;;;;12.35;7.80;;;;;;;3.37;nan;101043.16;5006886;28;20382;-79
2021/11/08 02:50:56;;;;;;;12.00;7.80;;;;;;;3.40;nan;101042.13;5008726;28;20038;-79
2021/11/08 02:53:24;;;;;;;10.65;7.50;;;;;;;3.45;nan;101050.53;5005061;28;20042;-79
2021/11/08 02:55:51;;;;;;;11.63;7.50;;;;;;;3.45;nan;101044.47;5002517;28;20087;-79
2021/11/08 02:58:17;;;;;;;10.95;7.30;;;;;;;3.45;nan;101042.69;5010952;28;20046;-79
2021/11/08 03:00:43;;;;;;;9.77;7.13;;;;;;;3.48;nan;101037.28;5001184;28;20096;-79
2021/11/08 03:03:08;;;;;;;12.13;7.60;;;;;;;3.46;nan;101031.31;4991958;28;20082;-79
2021/11/08 03:05:36;;;;;;;11.30;7.25;;;;;;;3.46;nan;101033.94;5005967;28;20025;-79
2021/11/08 03:08:08;;;;;;;12.13;6.93;;;;;;;3.38;nan;101029.19;5000916;28;20405;-79
2021/11/08 03:10:36;;;;;;;11.18;6.85;;;;;;;3.34;nan;101037.28;5006842;28;20037;-79
2021/11/08 03:13:17;;;;;;;12.13;6.60;;;;;;;3.33;nan;101032.97;5000634;28;20045;-79
2021/11/08 03:18:17;;;;;;;11.73;7.28;;;;;;;3.17;nan;101035.66;5004182;28;20070;-79
2021/11/08 03:20:43;;;;;;;10.02;7.28;;;;;;;3.17;nan;101041.75;5003064;28;20513;-79
2021/11/08 03:23:08;;;;;;;14.07;8.38;;;;;;;3.20;nan;101043.34;5013466;28;20042;-79
2021/11/08 03:25:43;;;;;;;11.23;7.00;;;;;;;3.12;nan;101038.59;5003331;28;20050;-79
2021/11/08 03:28:10;;;;;;;11.02;7.22;;;;;;;3.03;nan;101041.75;5002241;28;20058;-79
2021/11/08 03:30:40;;;;;;;11.40;7.70;;;;;;;2.96;nan;101043.84;5010900;28;20517;-79
2021/11/08 03:33:08;;;;;;;13.75;7.70;;;;;;;3.03;nan;101046.09;5011356;28;20060;-79
2021/11/08 03:35:33;;;;;;;10.60;7.20;;;;;;;3.02;nan;101041.81;5000145;28;20053;-78
2021/11/08 03:38:00;;;;;;;9.65;6.13;;;;;;;3.02;nan;101047.88;5010385;28;20080;-78
2021/11/08 03:40:31;;;;;;;12.23;7.20;;;;;;;2.90;nan;101044.22;5002089;28;20097;-78
2021/11/08 03:42:57;;;;;;;10.63;7.20;;;;;;;2.83;nan;101055.94;5004617;28;20062;-79
2021/11/08 03:45:25;;;;;;;9.35;6.65;;;;;;;2.77;nan;101056.31;5006785;28;20033;-79
2021/11/08 03:47:51;;;;;;;9.70;6.43;;;;;;;2.79;nan;101057.06;5003965;28;20090;-78
2021/11/08 03:50:17;;;;;;;13.15;6.70;;;;;;;2.80;nan;101055.28;5003359;28;20034;-79
2021/11/08 03:52:43;;;;;;;10.75;7.20;;;;;;;2.74;nan;101054.72;5005626;28;20030;-78
2021/11/08 03:55:11;;;;;;;16.40;8.50;;;;;;;2.75;nan;101058.16;5009561;28;20034;-78
2021/11/08 03:57:38;;;;;;;11.70;7.57;;;;;;;2.73;nan;101058.25;5011028;28;20034;-78
2021/11/08 04:00:10;;;;;;;9.50;7.18;;;;;;;2.67;nan;101058.63;5011829;28;20105;-79
2021/11/08 04:02:36;;;;;;;12.38;7.80;;;;;;;2.58;nan;101060.91;5006660;28;20038;-78
2021/11/08 04:05:02;;;;;;;10.82;7.22;;;;;;;2.48;nan;101060.56;5008780;28;20040;-78
2021/11/08 04:07:27;;;;;;;10.85;7.15;;;;;;;2.46;nan;101070.28;5009978;28;20069;-78
2021/11/08 04:09:53;;;;;;;12.52;7.25;;;;;;;2.37;nan;101063.78;5012578;28;20038;-78
2021/11/08 04:12:19;;;;;;;12.10;7.63;;;;;;;2.32;nan;101071.03;5001316;28;20037;-79
2021/11/08 04:14:45;;;;;;;11.20;6.95;;;;;;;2.30;nan;101070.28;5009635;28;20047;-78
2021/11/08 04:17:11;;;;;;;11.70;7.13;;;;;;;2.39;nan;101066.31;5008922;28;20041;-78
2021/11/08 04:19:37;;;;;;;14.77;8.23;;;;;;;2.42;nan;101073.97;5005701;28;20038;-78
2021/11/08 04:22:03;;;;;;;10.23;7.13;;;;;;;2.37;nan;101068.19;5007159;28;20137;-78
2021/11/08 04:24:29;;;;;;;12.35;7.45;;;;;;;2.30;nan;101068.50;5003729;28;20038;-78
2021/11/08 04:26:55;;;;;;;12.05;7.50;;;;;;;2.28;nan;101074.75;5011362;28;20053;-78
2021/11/08 04:29:23;;;;;;;10.93;7.32;;;;;;;2.25;nan;101062.72;5003854;28;20037;-78
2021/11/08 04:31:48;;;;;;;14.73;7.63;;;;;;;2.21;nan;101062.97;5004151;28;20041;-78
2021/11/08 04:34:27;;;;;;;10.85;6.88;;;;;;;2.27;nan;101073.91;5001515;28;20034;-78
2021/11/08 04:45:21;;;;;;;11.02;7.20;;;;;;;1.99;nan;101085.00;5006646;28;20394;-78
2021/11/08 04:50:20;;;;;;;11.43;6.63;;;;;;;1.86;nan;101082.22;5007305;28;19965;-78
2021/11/08 05:30:06;;;;;;;14.77;8.52;;;;;;;2.26;nan;101113.97;5005890;28;20063;-78
2021/11/08 05:32:35;;;;;;;16.63;8.77;;;;;;;2.26;nan;101119.16;5005761;28;20275;-78
2021/11/08 05:35:00;;;;;;;13.60;7.60;;;;;;;2.23;nan;101118.50;5011297;28;20199;-78
2021/11/08 05:37:27;;;;;;;10.82;6.50;;;;;;;2.23;nan;101118.50;5009753;28;20041;-78
2021/11/08 05:39:55;;;;;;;14.63;8.50;;;;;;;2.30;nan;101112.88;5000865;28;20492;-78
2021/11/08 05:42:22;;;;;;;15.27;8.50;;;;;;;2.24;nan;101110.63;5008094;28;20113;-78
2021/11/08 05:44:48;;;;;;;16.00;8.30;;;;;;;2.18;nan;101120.53;5012069;28;20506;-78
2021/11/08 05:47:15;;;;;;;11.55;8.15;;;;;;;2.09;nan;101120.09;4997576;28;20089;-78
2021/11/08 05:49:42;;;;;;;12.07;7.88;;;;;;;2.04;nan;101119.50;4996785;28;20033;-78
2021/11/08 05:52:08;;;;;;;12.90;7.72;;;;;;;2.03;nan;101132.66;5010205;28;20498;-78
2021/11/08 05:54:33;;;;;;;13.50;7.75;;;;;;;2.02;nan;101136.16;5012194;28;20128;-79
2021/11/08 05:57:21;;;;;;;10.93;7.07;;;;;;;2.05;nan;101133.38;5012485;28;20122;-78
2021/11/08 06:49:18;;;;;;;14.82;8.45;;;;;;;3.14;nan;101153.44;5009304;28;20628;-78
2021/11/08 06:51:43;;;;;;;13.23;8.20;;;;;;;3.26;nan;101160.56;5005636;28;20043;-78
2021/11/08 06:54:09;;;;;;;11.43;7.80;;;;;;;3.31;nan;101165.53;5004380;28;20126;-78
2021/11/08 06:56:46;;;;;;;12.98;8.25;;;;;;;3.40;nan;101163.22;4999703;28;20034;-78
2021/11/08 06:59:11;;;;;;;11.43;7.05;;;;;;;3.44;nan;101155.22;5006350;28;20457;-78
2021/11/08 07:01:36;;;;;;;12.15;8.25;;;;;;;3.51;nan;101162.59;4999469;28;20042;-78
2021/11/08 07:04:02;;;;;;;11.77;7.70;;;;;;;3.60;nan;101156.00;5006657;28;20580;-78
2021/11/08 07:06:28;;;;;;;14.77;7.88;;;;;;;3.73;nan;101159.53;5002400;28;20121;-78
2021/11/08 07:08:53;;;;;;;11.90;7.68;;;;;;;3.85;nan;101170.22;5004071;28;20084;-78
2021/11/08 07:11:18;;;;;;;15.77;8.45;;;;;;;3.96;nan;101171.25;5006823;28;20104;-78
2021/11/08 07:13:45;;;;;;;12.18;8.40;;;;;;;3.92;nan;101174.97;5008555;28;20034;-78
2021/11/08 07:16:11;;;;;;;12.05;7.57;;;;;;;3.93;nan;101176.69;5005938;28;20185;-78
2021/11/08 07:18:36;;;;;;;11.52;7.60;;;;;;;4.01;nan;101184.06;5006431;28;20049;-78
2021/11/08 07:21:01;;;;;;;10.85;6.80;;;;;;;4.09;nan;101186.19;5003373;28;20041;-78
2021/11/08 07:23:27;;;;;;;11.18;6.95;;;;;;;4.16;nan;101195.34;4999062;28;20138;-79
2021/11/08 07:25:53;;;;;;;11.32;7.55;;;;;;;4.17;nan;101195.28;4981157;28;20042;-78
2021/11/08 07:28:20;;;;;;;9.57;6.70;;;;;;;4.22;nan;101202.84;4993225;28;20041;-78
2021/11/08 07:30:47;;;;;;;9.88;6.30;;;;;;;4.31;nan;101201.41;5008883;28;20038;-78
2021/11/08 07:33:15;;;;;;;9.55;6.57;;;;;;;4.39;nan;101214.91;5010533;28;20113;-78
2021/11/08 07:35:40;;;;;;;12.18;6.50;;;;;;;4.47;nan;101208.22;5012233;28;20124;-79
2021/11/08 07:38:05;;;;;;;8.70;5.90;;;;;;;4.55;nan;101212.13;5025256;28;20068;-79
2021/11/08 07:40:31;;;;;;;7.47;5.80;;;;;;;4.60;nan;101207.44;5008963;28;20096;-79
2021/11/08 07:42:56;;;;;;;9.55;5.68;;;;;;;4.67;nan;101214.84;5006844;28;20053;-79
2021/11/08 07:45:24;;;;;;;13.10;6.57;;;;;;;4.72;nan;101219.81;5011313;28;20086;-78
2021/11/08 07:47:49;;;;;;;9.98;5.85;;;;;;;4.79;nan;101218.47;5014334;28;20030;-78
2021/11/08 07:50:14;;;;;;;9.40;5.80;;;;;;;4.78;nan;101223.81;5013770;28;20169;-79
2021/11/08 07:52:40;;;;;;;9.50;5.25;;;;;;;4.80;nan;101230.63;5004773;28;20060;-79
2021/11/08 07:55:06;;;;;;;7.95;5.07;;;;;;;4.84;nan;101242.59;5010301;28;20034;-78
2021/11/08 07:57:31;;;;;;;6.10;4.47;;;;;;;4.87;nan;101245.03;5007224;28;20061;-79
2021/11/08 07:59:56;;;;;;;7.05;4.50;;;;;;;4.94;nan;101242.84;5003180;28;20068;-78
2021/11/08 08:02:22;;;;;;;14.43;6.32;;;;;;;5.11;nan;101236.53;5014622;28;20035;-79
2021/11/08 08:04:50;;;;;;;15.07;7.55;;;;;;;5.13;nan;101242.53;5012183;28;20034;-78
2021/11/08 08:07:16;;;;;;;13.02;7.35;;;;;;;5.17;nan;101243.16;5006202;28;20042;-79
2021/11/08 08:09:41;;;;;;;10.18;6.60;;;;;;;5.28;nan;101236.25;5003248;28;20026;-79
2021/11/08 08:12:08;;;;;;;15.57;7.80;;;;;;;5.34;nan;101237.66;5002264;28;20517;-78
2021/11/08 08:14:33;;;;;;;15.30;8.30;;;;;;;5.38;nan;101238.28;5010895;28;20034;-79
2021/11/08 08:17:03;;;;;;;20.13;9.00;;;;;;;5.37;nan;101234.84;5007267;28;20108;-78
2021/11/08 08:19:31;;;;;;;17.38;9.77;;;;;;;5.45;nan;101232.53;5002826;28;20038;-78
2021/11/08 08:21:57;;;;;;;17.30;9.18;;;;;;;5.51;nan;101228.69;5021997;28;20080;-79
2021/11/08 08:24:23;;;;;;;16.90;10.27;;;;;;;5.72;nan;101229.00;5004639;28;20046;-79
2021/11/08 08:26:48;;;;;;;16.83;9.07;;;;;;;5.85;nan;101237.75;5027646;28;20042;-79
2021/11/08 08:29:14;;;;;;;21.50;10.55;;;;;;;6.06;nan;101235.50;5012465;28;20505;-78
2021/11/08 08:31:43;;;;;;;18.95;9.70;;;;;;;6.07;nan;101245.03;5005238;28;20494;-79
2021/11/08 08:34:12;;;;;;;20.10;10.30;;;;;;;6.03;nan;101243.59;4998583;28;20042;-79
2021/11/08 08:36:39;;;;;;;14.80;9.05;;;;;;;6.09;nan;101242.31;5012639;28;20034;-79
2021/11/08 08:39:06;;;;;;;18.02;10.13;;;;;;;6.10;nan;101244.84;5001143;28;20035;-79
2021/11/08 08:41:32;;;;;;;19.73;10.52;;;;;;;6.16;nan;101239.16;5001070;28;20038;-79
2021/11/08 08:43:57;;;;;;;18.95;11.05;;;;;;;6.24;nan;101245.66;5015043;28;20037;-79
2021/11/08 08:46:25;;;;;;;18.83;10.13;;;;;;;6.23;nan;101246.63;5008552;28;20558;-79
2021/11/08 08:48:53;;;;;;;21.58;10.18;;;;;;;6.27;nan;101254.19;5009405;28;20561;-79
2021/11/08 08:51:18;;;;;;;20.05;11.07;;;;;;;6.30;nan;101251.34;5029791;28;20057;-79
2021/11/08 08:53:43;;;;;;;16.52;10.60;;;;;;;6.31;nan;101246.91;5013033;28;20038;-79
2021/11/08 08:56:09;;;;;;;19.27;10.20;;;;;;;6.37;nan;101249.97;5002588;28;20062;-79
2021/11/08 08:58:34;;;;;;;18.23;10.07;;;;;;;6.40;nan;101253.31;5003310;28;20073;-79
2021/11/08 09:01:00;;;;;;;16.38;9.88;;;;;;;6.36;nan;101263.19;5007741;28;20209;-79
2021/11/08 09:03:25;;;;;;;14.30;8.77;;;;;;;6.52;nan;101263.81;5012977;28;20150;-79
2021/11/08 09:05:51;;;;;;;15.98;8.93;;;;;;;6.61;nan;101258.88;5005484;28;20044;-78
2021/11/08 09:08:18;;;;;;;16.65;9.20;;;;;;;6.71;nan;101262.53;5009070;28;20030;-79
2021/11/08 09:10:43;;;;;;;16.30;8.75;;;;;;;6.77;nan;101264.72;5013359;28;20034;-79
2021/11/08 09:13:09;;;;;;;16.83;9.02;;;;;;;6.78;nan;101269.03;5002491;28;20038;-79
2021/11/08 09:15:37;;;;;;;13.32;8.00;;;;;;;6.83;nan;101269.53;4997597;28;20065;-79
2021/11/08 09:18:04;;;;;;;13.90;8.02;;;;;;;6.83;nan;101271.31;5003445;28;20065;-79
2021/11/08 09:20:32;;;;;;;14.07;8.23;;;;;;;6.91;nan;101268.97;5002751;28;21030;-79
2021/11/08 09:22:57;;;;;;;14.45;8.43;;;;;;;6.94;nan;101272.25;4998652;28;20046;-79
2021/11/08 09:25:24;;;;;;;13.35;7.70;;;;;;;7.01;nan;101270.84;4997664;28;20035;-81
2021/11/08 09:27:52;;;;;;;18.52;9.20;;;;;;;7.19;nan;101273.09;5003966;28;20191;-79
2021/11/08 09:30:21;;;;;;;13.95;8.63;;;;;;;7.22;nan;101273.72;5002433;28;20046;-79
2021/11/08 09:32:47;;;;;;;16.30;8.93;;;;;;;7.28;nan;101275.06;5002098;28;20305;-79
2021/11/08 09:35:13;;;;;;;14.63;8.23;;;;;;;7.39;nan;101276.91;5010488;28;20116;-79
2021/11/08 09:37:44;;;;;;;17.60;9.13;;;;;;;7.45;nan;101277.28;5016220;28;20034;-79
2021/11/08 09:40:16;;;;;;;17.08;10.00;;;;;;;7.40;nan;101278.59;5003978;28;20026;-79
2021/11/08 09:42:44;;;;;;;17.20;9.88;;;;;;;7.55;nan;101277.44;5009399;28;20152;-79
2021/11/08 09:45:11;;;;;;;15.73;8.85;;;;;;;7.61;nan;101282.25;5017979;28;20034;-79
2021/11/08 09:47:38;;;;;;;16.95;9.70;;;;;;;7.66;nan;101281.91;5001691;28;20363;-79
2021/11/08 09:50:07;;;;;;;15.90;9.95;;;;;;;7.67;nan;101283.59;4997275;28;20035;-79
2021/11/08 09:52:38;;;;;;;17.83;11.15;;;;;;;7.61;nan;101282.25;5008324;28;20037;-79
2021/11/08 09:55:07;;;;;;;15.07;10.00;;;;;;;7.73;nan;101284.94;5013907;28;20057;-79
2021/11/08 09:57:33;;;;;;;15.60;10.02;;;;;;;7.81;nan;101283.38;5010695;28;20122;-79
2021/11/08 09:59:58;;;;;;;16.83;11.30;;;;;;;7.83;nan;101285.91;5011883;28;20058;-79
2021/11/08 10:02:24;;;;;;;17.17;11.48;;;;;;;7.90;nan;101287.13;5004897;28;20506;-79
2021/11/08 10:04:49;;;;;;;17.25;10.55;;;;;;;7.97;nan;101282.25;5011852;28;20034;-79
2021/11/08 10:07:16;;;;;;;21.73;11.75;;;;;;;8.12;nan;101281.06;5009609;28;20065;-79
2021/11/08 10:09:42;;;;;;;17.73;11.10;;;;;;;8.05;nan;101277.22;4999684;28;20133;-79
2021/11/08 10:12:12;;;;;;;17.08;9.30;;;;;;;8.16;nan;101279.88;5002422;28;20077;-79
2021/11/08 10:14:39;;;;;;;18.55;11.32;;;;;;;8.41;nan;101270.94;5007070;28;20103;-80
2021/11/08 10:17:06;;;;;;;17.83;10.40;;;;;;;8.53;nan;101271.78;5008134;28;20036;-79
2021/11/08 10:19:34;;;;;;;21.15;11.77;;;;;;;8.74;nan;101271.91;5005197;28;20088;-79
2021/11/08 10:22:03;;;;;;;17.90;11.45;;;;;;;8.79;nan;101269.72;4998961;28;20121;-78
2021/11/08 10:24:33;;;;;;;19.40;11.98;;;;;;;8.85;nan;101269.25;5004394;28;20042;-79
2021/11/08 10:27:02;;;;;;;18.40;11.40;;;;;;;8.88;nan;101266.38;5006925;28;20049;-78
2021/11/08 10:29:29;;;;;;;20.58;12.25;;;;;;;8.90;nan;101260.97;5006288;28;20045;-78
2021/11/08 10:31:59;;;;;;;22.40;12.18;;;;;;;8.87;nan;101258.59;4995740;28;20269;-78
2021/11/08 10:34:26;;;;;;;20.80;11.30;;;;;;;8.68;nan;101259.22;5003850;28;20035;-78
2021/11/08 10:36:59;;;;;;;21.23;11.68;;;;;;;8.74;nan;101266.63;5009724;28;20030;-78
2021/11/08 10:39:25;;;;;;;20.42;10.65;;;;;;;8.66;nan;101267.25;5011085;28;20041;-78
2021/11/08 10:41:53;;;;;;;20.08;9.68;;;;;;;8.64;nan;101263.88;5011732;28;20038;-78
2021/11/08 10:44:22;;;;;;;13.30;8.45;;;;;;;8.59;nan;101257.31;5006221;28;20117;-78
2021/11/08 10:46:58;;;;;;;19.70;9.68;;;;;;;8.65;nan;101252.38;5007456;28;20464;-78
2021/11/08 10:49:27;;;;;;;17.00;9.65;;;;;;;8.64;nan;101249.88;5013380;28;20410;-79
2021/11/08 10:51:58;;;;;;;16.88;9.73;;;;;;;8.66;nan;101256.69;5007293;28;20035;-81
2021/11/08 10:54:36;;;;;;;21.27;10.23;;;;;;;8.70;nan;101260.78;5012202;28;20043;-80
2021/11/08 10:57:06;;;;;;;20.70;9.77;;;;;;;8.78;nan;101256.69;5028751;28;20027;-78
2021/11/08 10:59:36;;;;;;;17.67;9.30;;;;;;;8.86;nan;101257.72;5013290;28;20038;-78
2021/11/08 11:02:04;;;;;;;14.32;8.40;;;;;;;8.78;nan;101261.97;5012329;28;20061;-78
2021/11/08 11:04:45;;;;;;;13.00;7.35;;;;;;;8.75;nan;101252.50;5002055;28;20382;-78
2021/11/08 11:07:12;;;;;;;17.13;7.40;;;;;;;8.79;nan;101253.06;4987719;28;20046;-80
2021/11/08 11:09:38;;;;;;;14.63;5.88;;;;;;;8.78;nan;101246.97;5023315;28;20034;-78
2021/11/08 11:12:14;;;;;;;11.30;5.53;;;;;;;8.82;nan;101247.56;4999186;28;20110;-78
2021/11/08 11:14:49;;;;;;;15.93;6.95;;;;;;;8.85;nan;101248.16;4998356;28;20045;-78
2021/11/08 11:17:19;;;;;;;19.48;6.97;;;;;;;8.88;nan;101237.34;5000647;28;20038;-78
2021/11/08 11:19:45;;;;;;;15.10;7.28;;;;;;;9.03;nan;101235.28;5009223;28;20034;-78
2021/11/08 11:22:15;;;;;;;19.05;7.60;;;;;;;9.06;nan;101235.03;5006631;28;20367;-78
2021/11/08 11:24:47;;;;;;;19.50;8.02;;;;;;;9.06;nan;101229.75;5018955;28;20030;-78
2021/11/08 11:27:48;;;;;;;19.23;8.50;;;;;;;9.19;nan;101223.47;5003638;28;20045;-78
2021/11/08 11:30:21;;;;;;;19.35;7.65;;;;;;;9.28;nan;101230.66;4998905;28;20038;-78
2021/11/08 11:33:02;;;;;;;18.90;7.97;;;;;;;9.38;nan;101228.09;5018457;28;20102;-78
2021/11/08 11:35:40;;;;;;;14.47;7.23;;;;;;;9.28;nan;101220.09;5001217;28;20570;-78
2021/11/08 11:38:11;;;;;;;18.40;7.97;;;;;;;9.23;nan;101225.75;5012881;28;20384;-78
2021/11/08 11:40:40;;;;;;;;;;;;;;;9.34;nan;101222.22;4998420;28;20121;-78
2021/11/08 11:43:14;;;;;;;13.45;6.80;;;;;;;9.36;nan;101220.28;5011660;28;20004;-78
2021/11/08 11:45:54;;;;;;;25.13;8.48;;;;;;;9.35;nan;101227.38;5003474;28;20040;-78
2021/11/08 11:48:25;;;;;;;17.13;8.03;;;;;;;9.20;nan;101226.00;4998649;28;20034;-78
2021/11/08 11:50:51;;;;;;;15.98;7.80;;;;;;;9.18;nan;101227.09;5009815;28;20057;-78
2021/11/08 11:53:17;;;;;;;18.98;6.78;;;;;;;9.33;nan;101231.09;4998933;28;20522;-78
2021/11/08 11:55:43;;;;;;;14.40;6.95;;;;;;;9.29;nan;101232.31;5005051;28;20022;-78
2021/11/08 11:58:08;;;;;;;19.73;6.97;;;;;;;9.22;nan;101233.78;5002419;28;20048;-78
2021/11/08 12:00:37;;;;;;;15.63;6.07;;;;;;;9.30;nan;101234.00;5002410;28;20117;-79
2021/11/08 12:03:04;;;;;;;14.05;5.68;;;;;;;9.27;nan;101232.47;5008271;28;20046;-80
2021/11/08 12:05:30;;;;;;;11.65;5.78;;;;;;;9.22;nan;101231.13;5010393;28;20157;-78
2021/11/08 12:07:58;;;;;;;15.82;5.47;;;;;;;9.22;nan;101228.50;5008915;28;20260;-79
2021/11/08 12:10:32;;;;;;;15.27;6.53;;;;;;;9.18;nan;101227.94;4998194;28;20042;-79
2021/11/08 12:12:58;;;;;;;12.77;5.78;;;;;;;9.22;nan;101228.50;5004418;28;20521;-79
2021/11/08 12:15:30;;;;;;;12.93;5.72;;;;;;;9.30;nan;101224.28;5011299;28;20045;-79
2021/11/08 12:18:05;;;;;;;15.95;6.00;;;;;;;9.44;nan;101228.44;5004548;28;20038;-78
2021/11/08 12:20:30;;;;;;;15.52;5.70;;;;;;;9.51;nan;101220.81;5009570;28;20037;-79
2021/11/08 12:22:56;;;;;;;19.40;6.05;;;;;;;9.46;nan;101220.34;5000535;28;20052;-79
2021/11/08 12:25:25;;;;;;;15.63;5.20;;;;;;;9.50;nan;101224.44;5007414;28;20105;-79
2021/11/08 12:28:16;;;;;;;15.02;5.63;;;;;;;9.42;nan;101214.50;5004764;28;20092;-79
2021/11/08 12:30:48;;;;;;;18.38;5.38;;;;;;;9.44;nan;101215.22;4991438;28;20447;-79
2021/11/08 12:33:41;;;;;;;14.82;5.55;;;;;;;9.43;nan;101210.91;5008664;28;20038;-78
2021/11/08 12:36:06;;;;;;;11.55;5.28;;;;;;;9.38;nan;101206.97;4997938;28;20181;-79
2021/11/08 12:38:54;;;;;;;15.52;5.45;;;;;;;9.46;nan;101205.38;5004640;28;20054;-79
2021/11/08 12:41:27;;;;;;;13.13;5.05;;;;;;;9.54;nan;101213.50;5008003;28;20504;-78
2021/11/08 12:43:58;;;;;;;13.52;5.13;;;;;;;9.68;nan;101204.41;5003206;28;20034;-79
2021/11/08 12:46:31;;;;;;;14.77;5.82;;;;;;;9.87;nan;101202.88;5004851;28;20042;-79
2021/11/08 12:49:07;;;;;;;11.40;5.07;;;;;;;9.90;nan;101205.22;5013564;28;20042;-79
2021/11/08 12:51:33;;;;;;;12.95;5.10;;;;;;;9.82;nan;101205.03;5005337;28;20441;-78
2021/11/08 12:54:06;;;;;;;9.23;5.03;;;;;;;9.84;nan;101197.81;5013524;28;20085;-80
2021/11/08 12:56:38;;;;;;;17.13;6.10;;;;;;;9.93;nan;101197.03;5004086;28;20033;-79
2021/11/08 12:59:12;;;;;;;14.95;6.00;;;;;;;9.85;nan;101196.88;5005536;28;20034;-79
2021/11/08 13:02:11;;;;;;;15.32;6.30;;;;;;;9.62;nan;101202.28;5001436;28;20030;-79
2021/11/08 13:04:57;;;;;;;11.77;5.68;;;;;;;9.55;nan;101212.50;5004381;28;20041;-79
2021/11/08 13:07:27;;;;;;;12.52;5.40;;;;;;;9.60;nan;101198.91;5000751;28;20038;-78
2021/11/08 13:09:56;;;;;;;16.25;5.60;;;;;;;9.75;nan;101207.38;5009726;28;20041;-81
2021/11/08 13:12:23;;;;;;;14.60;5.75;;;;;;;9.74;nan;101203.88;5001234;28;20165;-78
2021/11/08 13:15:10;;;;;;;12.98;4.70;;;;;;;9.76;nan;101206.41;5001983;28;20034;-78
2021/11/08 13:18:08;;;;;;;8.65;3.90;;;;;;;9.63;nan;101196.03;5009431;28;20042;-78
2021/11/08 13:20:38;;;;;;;11.15;4.53;;;;;;;9.62;nan;101196.16;4985212;28;20034;-78
2021/11/08 13:23:18;;;;;;;12.02;4.40;;;;;;;9.56;nan;101201.00;5006876;28;20035;-79
2021/11/08 13:25:47;;;;;;;11.80;4.25;;;;;;;9.42;nan;101198.69;4998740;28;20498;-78
2021/11/08 13:28:16;;;;;;;8.80;4.05;;;;;;;9.28;nan;101196.34;4984719;28;20129;-77
2021/11/08 13:30:44;;;;;;;14.43;5.97;;;;;;;9.22;nan;101202.94;4976396;28;20531;-77
2021/11/08 13:33:12;;;;;;;16.27;5.47;;;;;;;9.37;nan;101200.88;4980034;28;20042;-77